Time;durP1;ratioP1;P1;durP2;ratioP2;P2;SDS_P1;SDS_P2;PMS_P1;PMS_P2;Temp;Humidity;BMP_temperature;BMP_pressure;BME280_temperature;BME280_humidity;BME280_pressure;Samples;Min_cycle;Max_cycle;Signal;HPM_P1;HPM_P2
2023/03/29 00:01:50;;;;;;;8.53;3.50;;;-2.40;99.90;-3.60;100690;;;;597036;236;24040;-80
2023/03/29 00:04:18;;;;;;;6.63;3.07;;;-2.40;99.90;-3.60;100695;;;;596872;236;24146;-75
2023/03/29 00:06:47;;;;;;;6.73;3.50;;;-2.40;99.90;-3.60;100690;;;;606516;236;24071;-77
2023/03/29 00:09:15;;;;;;;9.40;3.23;;;-2.40;99.90;-3.60;100693;;;;596939;236;24052;-82
2023/03/29 00:11:43;;;;;;;3.13;2.60;;;-2.40;99.90;-3.60;100688;;;;596868;236;24096;-83
2023/03/29 00:14:11;;;;;;;4.90;2.97;;;-2.40;99.90;-3.70;100698;;;;596638;236;24100;-82
2023/03/29 00:16:39;;;;;;;6.93;4.13;;;-2.40;99.90;-3.70;100700;;;;596784;236;24045;-82
2023/03/29 00:19:07;;;;;;;4.67;3.63;;;-2.50;99.90;-3.70;100690;;;;596787;236;24050;-82
2023/03/29 00:21:35;;;;;;;5.40;3.80;;;-2.50;99.90;-3.70;100695;;;;606136;236;24144;-81
2023/03/29 00:24:03;;;;;;;4.97;3.23;;;-2.50;99.90;-3.70;100688;;;;596736;236;24088;-82
2023/03/29 00:26:31;;;;;;;6.87;3.13;;;-2.50;99.90;-3.70;100687;;;;596818;236;24077;-82
2023/03/29 00:28:59;;;;;;;4.80;3.43;;;-2.50;99.90;-3.70;100686;;;;596852;236;24137;-81
2023/03/29 00:31:31;;;;;;;5.47;2.90;;;-2.50;99.90;-3.70;100694;;;;596374;236;24042;-82
2023/03/29 00:33:55;;;;;;;8.23;3.27;;;-2.50;99.90;-3.70;100701;;;;596756;236;24066;-82
2023/03/29 00:36:23;;;;;;;5.47;3.60;;;-2.40;99.90;-3.70;100697;;;;596751;236;24013;-82
2023/03/29 00:38:51;;;;;;;3.80;2.93;;;-2.50;99.90;-3.70;100691;;;;596869;236;24024;-80
2023/03/29 00:41:20;;;;;;;10.07;3.30;;;-2.50;99.90;-3.70;100695;;;;596821;236;24065;-74
2023/03/29 00:43:51;;;;;;;8.07;2.90;;;-2.50;99.90;-3.70;100695;;;;596799;236;24056;-74
2023/03/29 00:46:23;;;;;;;9.03;3.23;;;-2.50;99.90;-3.70;100695;;;;606105;236;24103;-74
2023/03/29 00:48:47;;;;;;;6.37;3.37;;;-2.50;99.90;-3.70;100693;;;;596494;232;24080;-74
2023/03/29 00:51:15;;;;;;;6.37;3.70;;;-2.50;99.90;-3.70;100692;;;;606163;236;25127;-75
2023/03/29 00:53:47;;;;;;;4.93;3.83;;;-2.50;99.90;-3.70;100698;;;;596472;236;25099;-75
2023/03/29 00:56:21;;;;;;;7.10;4.00;;;-2.50;99.90;-3.70;100698;;;;605820;236;24083;-74
2023/03/29 00:58:53;;;;;;;8.90;3.53;;;-2.50;99.90;-3.70;100693;;;;604169;236;24059;-74
2023/03/29 01:01:27;;;;;;;6.43;3.47;;;-2.50;99.90;-3.70;100697;;;;602885;236;24123;-75
2023/03/29 01:03:53;;;;;;;10.97;3.73;;;-2.50;99.90;-3.70;100694;;;;605424;236;25100;-75
2023/03/29 01:06:23;;;;;;;9.20;4.30;;;-2.50;99.90;-3.70;100694;;;;595925;240;24060;-75
2023/03/29 01:08:47;;;;;;;7.87;4.23;;;-2.50;99.90;-3.70;100681;;;;595301;240;24125;-75
2023/03/29 01:11:18;;;;;;;5.60;3.77;;;-2.60;99.90;-3.80;100685;;;;586031;241;24118;-78
2023/03/29 01:13:58;;;;;;;9.00;3.77;;;-2.60;99.90;-3.70;100684;;;;595969;236;24042;-76
2023/03/29 01:16:27;;;;;;;6.63;3.87;;;-2.50;99.90;-3.80;100679;;;;596840;236;24052;-81
2023/03/29 01:18:53;;;;;;;9.53;4.20;;;-2.60;99.90;-3.80;100676;;;;606484;232;24043;-80
2023/03/29 01:21:39;;;;;;;6.70;3.73;;;-2.60;99.90;-3.80;100677;;;;596974;236;24049;-74
2023/03/29 01:24:31;;;;;;;7.80;4.00;;;-2.70;99.90;-3.90;100676;;;;606114;236;24044;-82
2023/03/29 01:27:17;;;;;;;10.53;4.10;;;-2.70;99.90;-3.90;100671;;;;585533;241;24046;-82
2023/03/29 01:29:53;;;;;;;6.23;3.50;;;-2.70;99.90;-3.90;100676;;;;596672;236;24028;-82
2023/03/29 01:32:22;;;;;;;6.50;3.83;;;-2.70;99.90;-3.90;100676;;;;596036;237;24062;-83
2023/03/29 01:34:55;;;;;;;8.65;4.78;;;-2.70;99.90;-3.90;100665;;;;589404;241;35122;-81
2023/03/29 01:37:31;;;;;;;7.63;4.20;;;-2.70;99.90;-3.90;100668;;;;599451;237;24147;-82
2023/03/29 01:39:59;;;;;;;5.47;3.63;;;-2.70;99.90;-3.90;100668;;;;595144;241;24049;-80
2023/03/29 01:42:35;;;;;;;8.50;3.60;;;-2.70;99.90;-3.90;100661;;;;585765;241;24104;-74
2023/03/29 01:45:09;;;;;;;8.07;3.77;;;-2.70;99.90;-3.90;100667;;;;594657;241;24108;-75
2023/03/29 01:47:45;;;;;;;7.30;4.03;;;-2.70;99.90;-3.90;100668;;;;605468;237;24113;-77
2023/03/29 01:50:15;;;;;;;5.07;3.23;;;-2.70;99.90;-3.90;100672;;;;595841;241;24079;-73
2023/03/29 01:52:56;;;;;;;5.70;4.07;;;-2.70;99.90;-3.90;100666;;;;605047;236;24061;-75
2023/03/29 01:55:24;;;;;;;9.73;3.97;;;-2.70;99.90;-3.90;100671;;;;585749;241;24055;-75
2023/03/29 01:57:55;;;;;;;6.67;4.03;;;-2.70;99.90;-3.90;100664;;;;583750;241;24078;-75
2023/03/29 02:00:20;;;;;;;5.23;3.80;;;-2.70;99.90;-3.90;100673;;;;606481;236;24030;-74
2023/03/29 02:02:48;;;;;;;8.37;4.60;;;-2.70;99.90;-4.00;100673;;;;597622;236;24081;-77
2023/03/29 02:05:19;;;;;;;7.43;4.07;;;-2.80;99.90;-4.00;100680;;;;597405;236;24128;-75
2023/03/29 02:07:46;;;;;;;4.90;4.03;;;-2.80;99.90;-4.00;100683;;;;593613;238;24091;-76
2023/03/29 02:10:15;;;;;;;7.87;3.60;;;-2.80;99.90;-4.10;100683;;;;585252;241;24082;-75
2023/03/29 02:12:40;;;;;;;6.30;4.37;;;-2.90;99.90;-4.10;100676;;;;599747;236;24048;-75
2023/03/29 02:15:13;;;;;;;7.23;3.80;;;-2.90;99.90;-4.10;100674;;;;585391;241;24045;-76
2023/03/29 02:17:38;;;;;;;5.13;3.73;;;-2.90;99.90;-4.10;100674;;;;586802;240;24070;-75
2023/03/29 02:20:13;;;;;;;5.17;3.70;;;-2.90;99.90;-4.10;100673;;;;586576;240;24092;-75
2023/03/29 02:22:37;;;;;;;4.63;2.97;;;-2.90;99.90;-4.20;100671;;;;600752;236;24058;-76
2023/03/29 02:25:07;;;;;;;7.90;4.72;;;-3.00;99.90;-4.20;100682;;;;601383;236;35074;-74
2023/03/29 02:27:36;;;;;;;7.00;3.40;;;-3.00;99.90;-4.20;100685;;;;597129;236;24157;-77
2023/03/29 02:30:01;;;;;;;6.53;3.50;;;-3.00;99.90;-4.20;100681;;;;596930;236;24059;-79
2023/03/29 02:32:29;;;;;;;6.30;4.07;;;-3.00;99.90;-4.20;100684;;;;597029;236;24025;-79
2023/03/29 02:35:11;;;;;;;8.73;3.83;;;-3.00;99.90;-4.20;100677;;;;595925;236;24120;-75
2023/03/29 02:37:39;;;;;;;5.87;3.93;;;-3.00;99.90;-4.20;100675;;;;595431;232;25446;-75
2023/03/29 02:40:11;;;;;;;3.87;3.03;;;-3.00;99.90;-4.30;100674;;;;606341;236;24065;-77
2023/03/29 02:42:35;;;;;;;9.63;4.67;;;-3.00;99.90;-4.30;100673;;;;596781;236;24108;-82
2023/03/29 02:45:03;;;;;;;5.30;3.77;;;-3.10;99.90;-4.30;100680;;;;597036;236;24035;-76
2023/03/29 02:47:31;;;;;;;6.70;3.87;;;-3.10;99.90;-4.30;100656;;;;597019;236;24034;-74
2023/03/29 02:49:59;;;;;;;6.93;3.10;;;-3.10;99.90;-4.30;100664;;;;606227;236;24043;-75
2023/03/29 02:52:27;;;;;;;7.27;3.60;;;-3.10;99.90;-4.30;100653;;;;606432;236;24086;-82
2023/03/29 02:54:58;;;;;;;6.20;3.50;;;-3.10;99.90;-4.30;100669;;;;606142;236;24042;-84
2023/03/29 02:57:25;;;;;;;5.90;3.63;;;-3.00;99.90;-4.20;100660;;;;605903;236;24096;-80
2023/03/29 02:59:53;;;;;;;6.27;3.77;;;-3.00;99.90;-4.30;100655;;;;596863;236;24032;-80
2023/03/29 03:02:25;;;;;;;6.43;2.73;;;-3.00;99.90;-4.30;100664;;;;596465;236;24053;-78
2023/03/29 03:04:49;;;;;;;4.70;3.20;;;-3.10;99.90;-4.30;100665;;;;595986;232;24062;-79
2023/03/29 03:07:18;;;;;;;11.00;3.47;;;-3.00;99.90;-4.30;100658;;;;596308;236;24087;-75
2023/03/29 03:09:48;;;;;;;5.77;3.57;;;-3.00;99.90;-4.30;100655;;;;596276;236;24066;-75
2023/03/29 03:12:15;;;;;;;6.07;3.90;;;-3.00;99.90;-4.30;100652;;;;596253;236;24055;-75
2023/03/29 03:14:41;;;;;;;7.75;4.43;;;-3.00;99.90;-4.20;100658;;;;591038;236;35070;-76
2023/03/29 03:17:08;;;;;;;4.97;3.43;;;-3.00;99.90;-4.30;100662;;;;596378;236;24101;-83
2023/03/29 03:19:37;;;;;;;8.37;3.27;;;-3.00;99.90;-4.20;100652;;;;596456;236;24070;-79
2023/03/29 03:22:04;;;;;;;5.03;3.67;;;-3.00;99.90;-4.20;100651;;;;596305;236;24032;-83
2023/03/29 03:24:32;;;;;;;6.07;4.10;;;-3.00;99.90;-4.30;100654;;;;596570;236;24054;-79
2023/03/29 03:27:00;;;;;;;11.70;4.03;;;-3.00;99.90;-4.30;100658;;;;596443;236;24040;-78
2023/03/29 03:29:29;;;;;;;6.27;4.50;;;-3.00;99.90;-4.20;100660;;;;598145;236;24044;-81
2023/03/29 03:31:57;;;;;;;8.43;4.47;;;-3.10;99.90;-4.20;100659;;;;597538;236;24092;-74
2023/03/29 03:34:25;;;;;;;7.77;4.47;;;-3.00;99.90;-4.20;100651;;;;606660;236;24071;-75
2023/03/29 03:36:54;;;;;;;7.30;4.80;;;-2.20;99.90;-4.20;100659;;;;597535;236;24162;-75
2023/03/29 03:39:21;;;;;;;9.63;6.23;;;-3.00;99.90;-4.20;100658;;;;592224;236;37866;-75
2023/03/29 03:41:49;;;;;;;14.30;6.70;;;-3.00;99.90;-4.20;100654;;;;597392;236;24064;-76
2023/03/29 03:44:17;;;;;;;13.80;6.50;;;-3.00;99.90;-4.20;100652;;;;597342;236;24046;-73
2023/03/29 03:46:45;;;;;;;13.03;7.43;;;-3.00;99.90;-4.20;100654;;;;597126;236;24069;-80
2023/03/29 03:49:13;;;;;;;12.63;6.37;;;-3.00;99.90;-4.20;100650;;;;597067;236;24017;-83
2023/03/29 03:51:44;;;;;;;10.03;5.50;;;-3.00;99.90;-4.20;100653;;;;597068;236;24056;-76
2023/03/29 03:54:09;;;;;;;11.63;6.20;;;-3.00;99.90;-4.30;100652;;;;596770;236;24069;-78
2023/03/29 03:56:37;;;;;;;11.43;5.57;;;-3.00;99.90;-4.30;100653;;;;597077;236;24060;-75
2023/03/29 03:59:07;;;;;;;11.23;5.97;;;-3.10;99.90;-4.40;100645;;;;596637;236;24086;-74
2023/03/29 04:01:34;;;;;;;7.87;4.77;;;-3.10;99.90;-4.40;100652;;;;596305;236;24036;-74
2023/03/29 04:04:00;;;;;;;5.93;4.27;;;-3.20;99.90;-4.40;100655;;;;596421;236;24101;-75
2023/03/29 04:06:29;;;;;;;6.87;4.77;;;-3.20;99.90;-4.40;100649;;;;596453;236;24152;-74
2023/03/29 04:08:56;;;;;;;8.30;5.30;;;-3.20;99.90;-4.40;100654;;;;596270;236;24033;-74
2023/03/29 04:11:24;;;;;;;4.83;4.30;;;-3.20;99.90;-4.40;100656;;;;596519;236;24047;-74
2023/03/29 04:13:52;;;;;;;7.43;4.53;;;-3.20;99.90;-4.40;100662;;;;596380;236;24044;-74
2023/03/29 04:16:20;;;;;;;4.87;3.73;;;-3.20;99.90;-4.40;100658;;;;596319;236;24031;-75
2023/03/29 04:18:48;;;;;;;6.93;4.63;;;-3.20;99.90;-4.40;100667;;;;596431;236;24060;-75
2023/03/29 04:21:17;;;;;;;6.87;4.13;;;-3.10;99.90;-4.40;100654;;;;596403;236;24058;-74
2023/03/29 04:23:46;;;;;;;10.83;4.53;;;-3.10;99.90;-4.30;100655;;;;607163;236;24055;-74
2023/03/29 04:26:17;;;;;;;8.37;4.93;;;-3.10;99.90;-4.40;100658;;;;596344;236;24121;-75
2023/03/29 04:28:41;;;;;;;8.90;4.30;;;-3.10;99.90;-4.40;100655;;;;606658;236;24103;-74
2023/03/29 04:31:15;;;;;;;8.03;4.10;;;-3.10;99.90;-4.40;100657;;;;596473;236;24068;-75
2023/03/29 04:33:41;;;;;;;6.73;3.27;;;-3.10;99.90;-4.40;100654;;;;596154;236;24063;-75
2023/03/29 04:36:09;;;;;;;5.93;3.33;;;-3.10;99.90;-4.40;100654;;;;605940;236;24118;-75
2023/03/29 04:38:40;;;;;;;5.77;3.90;;;-3.10;99.90;-4.30;100650;;;;596762;234;24010;-75
2023/03/29 04:41:07;;;;;;;7.67;3.77;;;-3.10;99.90;-4.30;100655;;;;598342;236;24028;-75
2023/03/29 04:43:34;;;;;;;5.17;3.60;;;-3.10;99.90;-4.30;100652;;;;597930;236;24130;-75
2023/03/29 04:46:05;;;;;;;4.93;3.67;;;-3.10;99.90;-4.30;100655;;;;597521;236;24081;-77
2023/03/29 04:48:35;;;;;;;6.73;4.50;;;-3.10;99.90;-4.30;100652;;;;597569;236;24036;-73
2023/03/29 04:51:01;;;;;;;11.90;5.63;;;-3.10;99.90;-4.30;100654;;;;606778;236;24057;-76
2023/03/29 04:53:29;;;;;;;19.30;9.73;;;-3.00;99.90;-4.30;100655;;;;597307;236;24045;-75
2023/03/29 04:55:58;;;;;;;28.67;12.10;;;-3.00;99.90;-4.20;100655;;;;597273;236;24033;-73
2023/03/29 04:58:28;;;;;;;29.97;12.30;;;-3.00;99.90;-4.10;100656;;;;596814;236;24036;-75
2023/03/29 05:00:59;;;;;;;32.17;12.20;;;-2.90;99.90;-4.10;100646;;;;606960;236;24143;-77
2023/03/29 05:03:27;;;;;;;25.43;12.60;;;-2.80;99.90;-4.00;100658;;;;600851;236;24061;-75
2023/03/29 05:05:55;;;;;;;29.93;12.53;;;-2.80;99.90;-3.90;100650;;;;596687;236;24058;-75
2023/03/29 05:08:20;;;;;;;31.70;11.70;;;-2.70;99.90;-3.90;100642;;;;596465;236;24064;-79
2023/03/29 05:10:48;;;;;;;22.83;10.17;;;-2.70;99.90;-3.80;100648;;;;597061;236;24076;-74
2023/03/29 05:13:16;;;;;;;14.40;7.43;;;-2.50;99.90;-3.70;100649;;;;597001;236;24023;-75
2023/03/29 05:15:44;;;;;;;6.83;4.70;;;-2.60;99.90;-3.70;100645;;;;596867;236;24017;-74
2023/03/29 05:18:12;;;;;;;9.97;4.67;;;-2.50;99.90;-3.60;100646;;;;596765;236;24017;-76
2023/03/29 05:20:41;;;;;;;9.43;4.63;;;-2.40;99.90;-3.50;100654;;;;596842;232;24079;-77
2023/03/29 05:23:08;;;;;;;5.27;4.03;;;-2.30;99.90;-3.40;100653;;;;596802;236;24065;-76
2023/03/29 05:25:36;;;;;;;6.87;3.93;;;-2.20;99.90;-3.30;100649;;;;596766;236;24028;-81
2023/03/29 05:28:04;;;;;;;7.37;4.13;;;-2.20;99.90;-3.20;100649;;;;596788;236;24059;-75
2023/03/29 05:30:32;;;;;;;8.47;4.90;;;-2.00;99.90;-2.30;100640;;;;596783;236;24026;-80
2023/03/29 05:33:00;;;;;;;7.50;4.60;;;-1.40;99.90;-0.20;100658;;;;596856;236;24059;-77
2023/03/29 05:35:27;;;;;;;3.20;2.80;;;0.40;99.90;2.40;100664;;;;606141;233;24119;-74
2023/03/29 05:37:55;;;;;;;12.43;3.57;;;2.80;99.90;4.80;100669;;;;596786;236;24020;-76
2023/03/29 05:40:25;;;;;;;8.63;3.53;;;5.20;99.90;7.10;100676;;;;596545;236;24040;-74
2023/03/29 05:42:54;;;;;;;7.43;4.50;;;7.50;99.90;9.00;100673;;;;596267;236;24080;-81
2023/03/29 05:45:23;;;;;;;7.80;4.43;;;9.50;99.90;10.70;100680;;;;605854;232;24079;-78
2023/03/29 05:47:47;;;;;;;11.50;5.23;;;11.20;99.90;12.40;100684;;;;590937;236;34935;-81
2023/03/29 05:50:15;;;;;;;10.73;4.37;;;12.80;99.90;13.50;100681;;;;596442;234;24124;-81
2023/03/29 05:52:43;;;;;;;8.50;4.47;;;14.00;90.70;14.20;100687;;;;598010;236;24056;-76
2023/03/29 05:55:11;;;;;;;9.73;4.93;;;15.00;89.60;15.20;100687;;;;597412;236;24067;-81
2023/03/29 05:57:39;;;;;;;7.37;4.50;;;15.90;83.30;16.10;100692;;;;597306;236;24107;-82
2023/03/29 06:00:22;;;;;;;7.53;4.30;;;16.80;73.20;17.00;100679;;;;597168;236;24075;-76
2023/03/29 06:02:47;;;;;;;8.27;4.73;;;18.50;65.80;17.70;100691;;;;595873;236;24045;-81
2023/03/29 06:05:16;;;;;;;7.93;3.60;;;19.20;60.00;18.60;100693;;;;596986;236;23091;-75
2023/03/29 06:07:44;;;;;;;4.70;3.27;;;20.00;58.20;19.40;100697;;;;595251;241;24045;-77
2023/03/29 06:10:12;;;;;;;5.80;3.70;;;20.00;57.60;20.80;100695;;;;593241;241;24119;-84
2023/03/29 06:12:40;;;;;;;7.73;3.70;;;21.10;50.80;21.20;100696;;;;585579;241;24076;-81
2023/03/29 06:15:09;;;;;;;4.70;3.00;;;21.80;49.30;21.60;100699;;;;585848;241;24115;-83
2023/03/29 06:17:36;;;;;;;6.47;3.20;;;22.30;46.80;21.80;100691;;;;596516;236;24050;-84
2023/03/29 06:20:09;;;;;;;4.63;3.77;;;22.60;48.30;22.00;100702;;;;596769;236;24087;-82
2023/03/29 06:22:32;;;;;;;3.50;3.20;;;22.80;45.60;22.20;100710;;;;596771;236;24146;-81
2023/03/29 06:25:00;;;;;;;6.47;2.97;;;23.10;45.70;23.00;100703;;;;596646;236;23109;-78
2023/03/29 06:27:28;;;;;;;4.70;3.63;;;23.60;45.20;23.70;100709;;;;596427;236;24032;-76
2023/03/29 06:29:56;;;;;;;8.00;3.20;;;24.20;41.90;23.80;100707;;;;596305;236;24053;-76
2023/03/29 06:32:24;;;;;;;8.40;4.33;;;24.40;42.10;23.90;100714;;;;596476;236;23090;-80
2023/03/29 06:34:52;;;;;;;7.13;3.73;;;24.60;42.20;23.90;100715;;;;596267;236;24086;-77
2023/03/29 06:37:22;;;;;;;10.70;4.13;;;24.60;41.00;24.10;100716;;;;605721;236;23038;-82
2023/03/29 06:39:52;;;;;;;5.73;3.03;;;24.80;41.00;24.60;100722;;;;596643;236;24034;-78
2023/03/29 06:42:17;;;;;;;11.90;4.97;;;25.50;40.80;24.90;100713;;;;596693;236;23055;-76
2023/03/29 06:44:48;;;;;;;4.03;2.50;;;25.90;38.80;25.30;100723;;;;596756;236;24096;-76
2023/03/29 06:47:16;;;;;;;5.50;3.13;;;25.90;38.80;25.20;100728;;;;596765;236;23043;-80
2023/03/29 06:49:41;;;;;;;5.17;3.13;;;25.90;39.20;25.10;100725;;;;596326;236;24053;-80
2023/03/29 06:52:09;;;;;;;5.77;2.70;;;25.90;38.60;25.70;100722;;;;596746;236;23060;-76
2023/03/29 06:54:40;;;;;;;5.47;2.80;;;26.20;38.10;26.00;100733;;;;606313;236;23046;-77
2023/03/29 06:57:04;;;;;;;3.90;2.60;;;26.60;37.30;25.90;100729;;;;596526;236;23035;-77
2023/03/29 06:59:33;;;;;;;2.30;1.83;;;26.60;37.80;26.10;100733;;;;596298;236;24080;-77
2023/03/29 07:02:01;;;;;;;2.30;2.07;;;26.70;37.40;26.20;100740;;;;596632;234;23071;-78
2023/03/29 07:04:31;;;;;;;4.63;2.53;;;26.70;36.70;26.80;100728;;;;597823;236;23034;-82
2023/03/29 07:07:06;;;;;;;5.53;2.60;;;27.20;36.50;27.10;100734;;;;596675;236;23097;-76
2023/03/29 07:09:30;;;;;;;4.63;2.93;;;27.60;36.30;27.70;100732;;;;596954;236;23040;-77
2023/03/29 07:12:01;;;;;;;4.47;2.58;;;28.00;36.40;28.30;100725;;;;596979;236;24078;-77
2023/03/29 07:14:29;;;;;;;4.68;2.92;;;28.60;35.80;29.00;100734;;;;596831;236;24067;-81
2023/03/29 07:17:01;;;;;;;6.18;2.60;;;29.30;35.00;29.50;100735;;;;596924;236;23089;-77
2023/03/29 07:19:26;;;;;;;3.12;2.50;;;29.80;34.90;30.00;100731;;;;606034;236;23061;-77
2023/03/29 07:21:53;;;;;;;4.28;2.37;;;30.30;34.20;30.50;100729;;;;596671;236;23066;-76
2023/03/29 07:24:21;;;;;;;6.32;2.92;;;31.20;33.20;30.70;100726;;;;606229;236;24109;-77
2023/03/29 07:26:51;;;;;;;6.80;2.60;;;31.40;32.90;30.90;100737;;;;596766;236;23084;-77
2023/03/29 07:29:18;;;;;;;10.98;2.90;;;31.30;32.90;31.20;100729;;;;606071;236;24041;-79
2023/03/29 07:31:45;;;;;;;2.83;2.08;;;31.70;32.70;31.90;100714;;;;596766;236;23048;-78
2023/03/29 07:34:16;;;;;;;3.37;2.60;;;32.30;31.20;31.90;100717;;;;596602;236;23100;-77
2023/03/29 07:36:43;;;;;;;7.40;2.80;;;32.40;32.10;32.20;100718;;;;596796;236;23096;-77
2023/03/29 07:39:11;;;;;;;6.00;2.33;;;32.80;31.00;32.40;100720;;;;596401;236;24072;-77
2023/03/29 07:41:37;;;;;;;8.90;2.53;;;32.90;31.20;32.70;100709;;;;596728;236;23099;-78
2023/03/29 07:44:07;;;;;;;4.25;1.60;;;33.20;30.20;32.80;100702;;;;596882;236;23028;-77
2023/03/29 07:46:34;;;;;;;3.33;1.85;;;33.30;30.00;32.80;100710;;;;596703;236;23070;-80
2023/03/29 07:49:01;;;;;;;3.55;2.10;;;33.40;30.00;32.90;100703;;;;596727;236;23070;-80
2023/03/29 07:51:29;;;;;;;7.50;2.00;;;33.50;29.60;33.30;100699;;;;605822;233;23068;-78
2023/03/29 07:53:57;;;;;;;6.85;1.98;;;33.90;29.20;33.60;100705;;;;596485;236;23181;-77
2023/03/29 07:56:25;;;;;;;2.15;1.77;;;34.40;28.60;33.80;100703;;;;596410;236;23096;-77
2023/03/29 07:58:53;;;;;;;1.40;1.30;;;34.30;28.50;33.40;100705;;;;596247;236;23158;-77
2023/03/29 08:01:21;;;;;;;2.50;2.03;;;34.30;28.20;33.40;100716;;;;596766;236;23020;-78
2023/03/29 08:03:49;;;;;;;2.33;1.65;;;34.30;28.50;33.60;100710;;;;596756;236;23023;-77
2023/03/29 08:06:17;;;;;;;2.70;1.83;;;34.40;28.70;33.90;100716;;;;596838;236;23031;-76
2023/03/29 08:08:45;;;;;;;5.00;2.00;;;34.70;28.10;33.80;100712;;;;596830;236;23038;-77
2023/03/29 08:11:14;;;;;;;2.78;2.35;;;34.70;28.20;34.00;100722;;;;596826;236;23044;-80
2023/03/29 08:13:41;;;;;;;2.60;2.20;;;34.80;28.20;34.20;100721;;;;597088;232;23054;-78
2023/03/29 08:16:09;;;;;;;1.98;1.75;;;34.90;28.40;34.20;100709;;;;597801;236;23050;-78
2023/03/29 08:18:37;;;;;;;1.62;1.50;;;35.10;27.50;34.10;100719;;;;597529;236;23039;-79
2023/03/29 08:21:05;;;;;;;3.90;1.75;;;35.00;27.50;34.10;100715;;;;597270;236;23059;-77
2023/03/29 08:23:32;;;;;;;1.95;1.75;;;35.00;27.70;34.40;100722;;;;607853;236;23027;-77
2023/03/29 08:26:01;;;;;;;1.75;1.52;;;35.30;27.10;34.20;100714;;;;596891;236;23022;-77
2023/03/29 08:28:28;;;;;;;2.70;1.98;;;35.20;27.20;34.30;100714;;;;596847;236;23085;-79
2023/03/29 08:30:57;;;;;;;2.10;1.80;;;35.50;27.30;34.50;100718;;;;597029;236;23021;-77
2023/03/29 08:33:25;;;;;;;1.70;1.60;;;35.40;27.20;34.80;100709;;;;596596;236;23161;-77
2023/03/29 08:35:56;;;;;;;1.98;1.80;;;35.80;26.40;34.80;100707;;;;596710;236;23039;-77
2023/03/29 08:38:21;;;;;;;4.30;1.98;;;35.80;26.70;35.00;100704;;;;596401;236;23086;-79
2023/03/29 08:40:49;;;;;;;2.75;2.45;;;36.10;25.90;34.90;100704;;;;596532;236;23098;-79
2023/03/29 08:43:19;;;;;;;4.40;2.33;;;36.10;26.20;34.70;100707;;;;596974;236;23028;-78
2023/03/29 08:46:06;;;;;;;2.87;2.30;;;36.20;26.40;34.90;100707;;;;602133;236;23024;-78
2023/03/29 08:48:46;;;;;;;2.45;2.25;;;36.10;26.30;35.20;100696;;;;607683;236;23064;-77
2023/03/29 08:51:32;;;;;;;4.07;2.05;;;36.40;26.10;35.40;100696;;;;606010;236;24095;-78
2023/03/29 08:54:06;;;;;;;33.33;6.50;;;36.60;26.20;35.20;100689;;;;606108;236;23096;-78
2023/03/29 08:56:34;;;;;;;28.83;5.82;;;36.70;25.80;35.00;100692;;;;606003;236;23098;-79
2023/03/29 08:59:03;;;;;;;4.50;2.22;;;36.60;26.00;35.10;100687;;;;605789;236;23040;-78
2023/03/29 09:01:30;;;;;;;4.47;1.60;;;36.60;26.00;35.50;100686;;;;606048;236;23090;-80
2023/03/29 09:04:07;;;;;;;2.78;2.00;;;36.90;25.80;36.00;100683;;;;606177;236;23073;-77
2023/03/29 09:06:35;;;;;;;7.03;1.92;;;37.20;25.20;35.90;100689;;;;596714;236;23035;-77
2023/03/29 09:09:03;;;;;;;4.03;2.00;;;37.30;25.00;35.60;100682;;;;596660;236;23078;-78
2023/03/29 09:12:01;;;;;;;1.73;1.48;;;37.20;25.00;35.30;100682;;;;596736;236;24104;-78
2023/03/29 09:14:56;;;;;;;1.85;1.45;;;37.00;24.60;35.10;100684;;;;596581;236;23034;-78
2023/03/29 09:17:41;;;;;;;2.33;1.40;;;36.70;24.60;35.10;100686;;;;596231;236;23044;-77
2023/03/29 09:20:36;;;;;;;3.85;1.70;;;36.70;25.00;35.20;100684;;;;596356;236;23081;-77
2023/03/29 09:23:32;;;;;;;1.40;1.40;;;36.80;24.80;35.50;100695;;;;601782;236;23020;-77
2023/03/29 09:26:08;;;;;;;1.50;1.42;;;37.10;24.30;35.30;100694;;;;606487;235;23081;-78
2023/03/29 09:28:37;;;;;;;1.33;1.30;;;37.10;24.20;35.20;100689;;;;597452;236;23077;-76
2023/03/29 09:31:22;;;;;;;3.55;2.12;;;37.20;24.30;35.10;100693;;;;596680;236;23050;-77
2023/03/29 09:33:59;;;;;;;2.80;1.77;;;37.00;24.30;34.80;100687;;;;606475;232;23073;-77
2023/03/29 09:36:33;;;;;;;6.95;1.87;;;36.90;24.40;34.30;100683;;;;606183;236;23064;-78
2023/03/29 09:39:04;;;;;;;1.98;1.87;;;36.50;24.60;34.60;100683;;;;603761;236;24132;-78
2023/03/29 09:41:35;;;;;;;3.03;1.80;;;36.60;24.90;35.00;100683;;;;596470;236;23048;-78
2023/03/29 09:44:05;;;;;;;2.42;2.00;;;36.80;24.90;34.90;100675;;;;606479;236;23081;-78
2023/03/29 09:46:39;;;;;;;3.08;1.92;;;36.90;24.30;34.90;100675;;;;606304;236;23056;-76
2023/03/29 09:49:07;;;;;;;1.90;1.80;;;36.90;24.80;35.30;100676;;;;596814;236;23090;-77
2023/03/29 09:51:35;;;;;;;2.30;2.10;;;37.30;24.90;35.30;100670;;;;606247;236;23037;-78
2023/03/29 09:54:03;;;;;;;3.45;2.00;;;37.40;24.80;35.00;100669;;;;596926;236;23058;-78
2023/03/29 09:56:34;;;;;;;2.28;2.08;;;37.50;24.80;34.90;100666;;;;596982;236;23051;-78
2023/03/29 09:58:59;;;;;;;5.55;2.28;;;37.40;25.00;34.70;100669;;;;605769;236;24109;-78
2023/03/29 10:01:27;;;;;;;5.18;1.73;;;37.40;24.70;34.70;100663;;;;595940;236;23079;-77
2023/03/29 10:03:59;;;;;;;3.47;1.92;;;37.40;24.60;34.80;100662;;;;605247;236;24152;-76
2023/03/29 10:06:25;;;;;;;3.62;1.85;;;37.30;24.50;34.20;100655;;;;595997;236;23065;-78
2023/03/29 10:08:56;;;;;;;2.47;2.10;;;37.10;24.20;34.10;100657;;;;605840;233;23063;-80
2023/03/29 10:11:28;;;;;;;1.87;1.62;;;36.80;24.50;33.80;100655;;;;596396;236;23054;-79
2023/03/29 10:13:59;;;;;;;2.50;1.77;;;36.60;24.60;33.10;100652;;;;596350;232;23030;-77
2023/03/29 10:16:24;;;;;;;2.55;1.52;;;36.10;24.90;32.60;100638;;;;605327;236;23063;-77
2023/03/29 10:18:53;;;;;;;2.83;1.50;;;35.60;25.10;31.80;100653;;;;596156;236;23051;-79
2023/03/29 10:21:22;;;;;;;5.62;1.65;;;34.80;24.90;30.20;100646;;;;596239;236;24148;-82
2023/03/29 10:23:51;;;;;;;1.87;1.73;;;33.40;25.10;28.10;100646;;;;596248;236;23188;-78
2023/03/29 10:26:28;;;;;;;2.75;1.85;;;28.90;26.70;25.90;100634;;;;596103;236;24052;-76
2023/03/29 10:28:59;;;;;;;3.13;1.73;;;28.80;26.70;23.80;100631;;;;596473;236;23046;-77
2023/03/29 10:31:26;;;;;;;4.10;1.77;;;26.50;27.90;22.20;100632;;;;596438;236;23103;-76
2023/03/29 10:33:54;;;;;;;2.00;1.53;;;24.50;29.20;20.90;100626;;;;596116;236;23049;-76
2023/03/29 10:36:22;;;;;;;3.10;2.10;;;23.00;30.90;19.80;100619;;;;606037;236;24024;-79
2023/03/29 10:38:51;;;;;;;2.47;1.87;;;20.50;33.80;18.80;100611;;;;608790;234;24038;-76
2023/03/29 10:41:19;;;;;;;4.23;1.70;;;20.30;33.60;17.70;100607;;;;598017;236;23047;-77
2023/03/29 10:43:49;;;;;;;1.40;1.30;;;19.30;35.30;16.90;100607;;;;597421;236;24065;-75
2023/03/29 10:46:30;;;;;;;2.70;1.70;;;18.30;37.30;16.00;100602;;;;597467;236;24084;-81
2023/03/29 10:48:58;;;;;;;2.10;0.93;;;16.50;40.10;15.30;100602;;;;606868;236;24260;-75
2023/03/29 10:51:27;;;;;;;1.40;1.30;;;16.40;40.00;14.60;100598;;;;595950;236;24051;-82
2023/03/29 10:53:54;;;;;;;2.47;1.40;;;15.60;40.90;14.00;100586;;;;606902;236;24016;-83
2023/03/29 10:56:38;;;;;;;1.53;0.97;;;15.00;42.40;13.40;100590;;;;604959;236;24037;-75
2023/03/29 10:59:16;;;;;;;1.40;1.30;;;14.30;43.10;12.80;100582;;;;596794;236;24095;-75
2023/03/29 11:01:44;;;;;;;5.70;1.87;;;13.60;44.40;12.30;100575;;;;606372;236;24070;-75
2023/03/29 11:04:45;;;;;;;1.83;1.07;;;13.10;45.70;12.00;100567;;;;605828;236;24036;-77
2023/03/29 11:07:16;;;;;;;2.10;1.07;;;12.70;46.80;11.70;100572;;;;606530;236;24033;-75
2023/03/29 11:09:55;;;;;;;1.43;1.33;;;12.30;47.40;11.30;100563;;;;606253;236;24063;-76
2023/03/29 11:12:38;;;;;;;2.17;1.27;;;11.90;47.70;10.80;100562;;;;596883;236;24038;-76
2023/03/29 11:15:28;;;;;;;1.17;1.07;;;11.50;47.80;10.50;100548;;;;606205;236;24060;-75
2023/03/29 11:18:31;;;;;;;2.07;1.30;;;11.10;48.90;10.20;100540;;;;596399;236;24047;-75
2023/03/29 11:21:17;;;;;;;1.87;1.20;;;10.80;50.20;10.00;100543;;;;596509;236;24081;-75
2023/03/29 11:24:03;;;;;;;2.20;1.27;;;10.60;50.90;9.90;100543;;;;596562;236;25067;-75